• Join FlightAware (Why Join?)
  • Login
  • US Flag 
12:14PM EDT


 

Airport Tracker/Info


-or-


 

Live Flight TrackerFlight Track Log ✈ N441R ✈ 18-Jul-2013 ✈ KINT - KBKW

Flight Track Log - Related Links

Times and Time Zones

All times are in EDT time to prevent confusion due to time zone crossing. See the N441R flight status page for this flight to view local times or setup timezone preferences in your user account.

Time Position Orientation Groundspeed Altitude Reporting Facility
EDT Latitude Longitude Course Direction KTS MPH feet Rate Location/Type
07:46AM 36.2175 -80.4178 297° West 206 237 8,800  Level Atlanta Center
07:47AM 36.2422 -80.4783 297° West 206 237 11,100 2,160 Climbing Atlanta Center
07:48AM 36.2969 -80.4942 347° North 176 203 13,200 2,160 Climbing Atlanta Center
07:49AM 36.2900 -80.6700 293° West  Level FlightAware Approximate
07:49AM 36.3494 -80.5047 351° North 187 215 15,500  Level Atlanta Center
07:50AM 36.3156 -80.7467 293° West  Level FlightAware Approximate
07:50AM 36.4042 -80.5203 347° North 199 229 17,300  Level Atlanta Center
07:51AM 36.4672 -80.5381 347° North 213 245 17,900 300 Climbing Atlanta Center
07:52AM 36.5533 -80.5628 347° North 266 306 18,000  Climbing Atlanta Center
07:53AM 36.6269 -80.5828 348° North 293 337 18,000  Level Atlanta Center
07:54AM 36.7175 -80.6100 346° North 298 343 18,000  Level Atlanta Center
07:55AM 36.7908 -80.6303 348° North 292 336 18,000  Level Atlanta Center
07:56AM 36.8622 -80.6506 347° North 292 336 18,000  Level Atlanta Center
07:57AM 36.9422 -80.6731 347° North 292 336 18,000  Level Atlanta Center
07:59AM 37.1422 -80.7453 344° North 291 335 18,000 -240 Level Indianapolis Center
08:00AM 37.2097 -80.8014 326° Northwest 300 345 17,200 -1,260 Descending Indianapolis Center
08:01AM 37.2794 -80.8656 324° Northwest 316 364 15,500 -1,920 Descending Indianapolis Center
08:03AM 37.3611 -80.9406 324° Northwest 312 359 13,300 -1,920 Descending Indianapolis Center
08:04AM 37.4256 -80.9997 324° Northwest 298 343 11,600 -1,740 Descending Indianapolis Center
08:05AM 37.4872 -81.0567 324° Northwest 286 329 9,800 -1,920 Descending Indianapolis Center
08:06AM 37.5625 -81.1236 325° Northwest 285 328 7,700 -1,740 Descending Indianapolis Center
08:07AM 37.6242 -81.1561 337° Northwest 270 311 6,300 -1,380 Descending Indianapolis Center
08:09AM 37.7512 -81.1167 North  Level FlightAware Approximate
08:16AM 37.7833 -81.1167 North  Level FlightAware Approximate
08:17AM 37.7873 -81.1242 North  Level Estimated
08:18AM 37.7833 -81.1167 North  Level FlightAware Approximate